Time;durP1;ratioP1;P1;durP2;ratioP2;P2;SDS_P1;SDS_P2;PMS_P1;PMS_P2;Temp;Humidity;BMP_temperature;BMP_pressure;BME280_temperature;BME280_humidity;BME280_pressure;Samples;Min_cycle;Max_cycle;Signal;HPM_P1;HPM_P2
2022/05/09 00:00:22;;;;;;;10.88;9.77;;;;;;;;;;4995486;28;20058;-67
2022/05/09 00:02:51;;;;;;;14.00;10.60;;;;;;;;;;4994787;28;20418;-67
2022/05/09 00:05:24;;;;;;;11.90;10.55;;;;;;;;;;4995050;28;20074;-67
2022/05/09 00:07:53;;;;;;;13.80;9.90;;;;;;;;;;4994771;28;20050;-67
2022/05/09 00:10:23;;;;;;;14.02;10.13;;;;;;;;;;4995088;28;20387;-67
2022/05/09 00:12:51;;;;;;;11.50;10.30;;;;;;;;;;4995596;28;20051;-67
2022/05/09 00:15:21;;;;;;;13.68;9.43;;;;;;;;;;4994778;28;20042;-67
2022/05/09 00:17:49;;;;;;;9.63;8.65;;;;;;;;;;4994938;28;20069;-69
2022/05/09 00:20:19;;;;;;;12.45;9.65;;;;;;;;;;4994677;28;20055;-69
2022/05/09 00:22:52;;;;;;;10.40;9.30;;;;;;;;;;4995384;28;20398;-69
2022/05/09 00:25:23;;;;;;;12.40;10.27;;;;;;;;;;4993539;28;20058;-69
2022/05/09 00:27:52;;;;;;;10.70;9.50;;;;;;;;;;4994700;28;20046;-69
2022/05/09 00:30:22;;;;;;;13.55;10.15;;;;;;;;;;4994520;28;20413;-68
2022/05/09 00:32:50;;;;;;;12.32;10.20;;;;;;;;;;4994668;28;20053;-68
2022/05/09 00:35:20;;;;;;;13.23;9.70;;;;;;;;;;4994960;28;20716;-69
2022/05/09 00:37:48;;;;;;;11.95;10.13;;;;;;;;;;4994455;28;20042;-69
2022/05/09 00:40:17;;;;;;;14.50;10.15;;;;;;;;;;4994956;28;20046;-68
2022/05/09 00:42:48;;;;;;;12.57;10.13;;;;;;;;;;4994670;28;20057;-69
2022/05/09 00:45:18;;;;;;;14.13;10.57;;;;;;;;;;4994498;28;20525;-69
2022/05/09 00:47:50;;;;;;;11.40;10.25;;;;;;;;;;4994529;28;20061;-69
2022/05/09 00:50:40;;;;;;;10.68;9.43;;;;;;;;;;4994496;28;20045;-69
2022/05/09 00:53:09;;;;;;;10.48;8.85;;;;;;;;;;4993574;28;20054;-67
2022/05/09 00:56:06;;;;;;;14.60;10.23;;;;;;;;;;4993187;28;20490;-67
2022/05/09 00:59:02;;;;;;;11.48;10.20;;;;;;;;;;4994699;28;20074;-67
2022/05/09 01:01:31;;;;;;;15.77;11.25;;;;;;;;;;4993556;28;20057;-66
2022/05/09 01:04:21;;;;;;;17.42;11.82;;;;;;;;;;4993875;28;20112;-67
2022/05/09 01:06:48;;;;;;;12.48;10.27;;;;;;;;;;4993731;28;20096;-67
2022/05/09 01:09:16;;;;;;;11.68;9.05;;;;;;;;;;4992838;28;20133;-67
2022/05/09 01:11:44;;;;;;;10.23;9.10;;;;;;;;;;4993905;28;20050;-67
2022/05/09 01:14:13;;;;;;;15.93;9.95;;;;;;;;;;4992866;28;20502;-66
2022/05/09 01:16:41;;;;;;;11.60;10.50;;;;;;;;;;4993759;28;20493;-66
2022/05/09 01:19:28;;;;;;;11.77;9.77;;;;;;;;;;4994109;28;20049;-64
2022/05/09 01:21:58;;;;;;;10.13;8.95;;;;;;;;;;4993374;28;20106;-65
2022/05/09 01:24:28;;;;;;;21.45;11.27;;;;;;;;;;4994322;28;20042;-67
2022/05/09 01:26:58;;;;;;;15.23;9.88;;;;;;;;;;4993570;28;20501;-67
2022/05/09 01:30:03;;;;;;;11.65;10.27;;;;;;;;;;4994262;28;20086;-67
2022/05/09 01:32:37;;;;;;;13.43;9.68;;;;;;;;;;4993267;28;20049;-65
2022/05/09 01:35:17;;;;;;;9.95;8.95;;;;;;;;;;5008541;28;20054;-65
2022/05/09 01:37:49;;;;;;;10.93;9.02;;;;;;;;;;4993522;28;20053;-65
2022/05/09 01:40:19;;;;;;;10.93;8.80;;;;;;;;;;4992969;28;20042;-66
2022/05/09 01:42:49;;;;;;;14.23;9.55;;;;;;;;;;4993759;28;20043;-67
2022/05/09 01:45:17;;;;;;;10.43;9.40;;;;;;;;;;4993448;28;20042;-68
2022/05/09 01:50:33;;;;;;;9.50;8.70;;;;;;;;;;4993700;28;20038;-67
2022/05/09 01:53:02;;;;;;;14.02;9.00;;;;;;;;;;4993774;28;20133;-67
2022/05/09 01:55:30;;;;;;;10.48;9.20;;;;;;;;;;4993381;28;20411;-67
2022/05/09 01:57:59;;;;;;;10.80;9.52;;;;;;;;;;4994220;28;20190;-67
2022/05/09 02:00:28;;;;;;;10.63;9.60;;;;;;;;;;4993278;28;20057;-67
2022/05/09 02:02:56;;;;;;;11.88;9.23;;;;;;;;;;4993773;28;20050;-67
2022/05/09 02:05:26;;;;;;;12.57;9.50;;;;;;;;;;4993567;28;20049;-66
2022/05/09 02:07:54;;;;;;;12.48;9.40;;;;;;;;;;4994577;28;20050;-67
2022/05/09 02:10:22;;;;;;;12.05;8.95;;;;;;;;;;4997727;28;20042;-66
2022/05/09 02:12:51;;;;;;;9.02;8.13;;;;;;;;;;4996901;28;20161;-66
2022/05/09 02:15:21;;;;;;;9.95;8.40;;;;;;;;;;4997476;28;20096;-66
2022/05/09 02:17:49;;;;;;;13.10;9.75;;;;;;;;;;4996865;28;20054;-66
2022/05/09 02:20:17;;;;;;;13.38;8.77;;;;;;;;;;4997234;28;20158;-66
2022/05/09 02:22:44;;;;;;;12.70;8.80;;;;;;;;;;4996664;28;20054;-66
2022/05/09 02:25:29;;;;;;;10.02;9.05;;;;;;;;;;4997113;28;20512;-66
2022/05/09 02:27:59;;;;;;;18.23;10.07;;;;;;;;;;4997066;28;20046;-66
2022/05/09 02:30:26;;;;;;;11.45;8.57;;;;;;;;;;4996757;28;20504;-66
2022/05/09 02:32:55;;;;;;;10.15;8.63;;;;;;;;;;4997024;28;20085;-66
2022/05/09 02:35:23;;;;;;;10.43;9.25;;;;;;;;;;4996763;28;20051;-66
2022/05/09 02:37:52;;;;;;;10.65;8.25;;;;;;;;;;4996732;28;20104;-65
2022/05/09 02:40:23;;;;;;;10.57;9.38;;;;;;;;;;4996659;28;20053;-66
2022/05/09 02:42:53;;;;;;;15.98;10.20;;;;;;;;;;4996907;28;20049;-66
2022/05/09 02:45:21;;;;;;;9.90;8.55;;;;;;;;;;4996646;28;20505;-66
2022/05/09 02:47:50;;;;;;;10.32;9.32;;;;;;;;;;4997195;28;20054;-66
2022/05/09 02:50:19;;;;;;;11.43;9.38;;;;;;;;;;4996151;28;20140;-67
2022/05/09 02:52:48;;;;;;;10.43;9.25;;;;;;;;;;4996563;28;20042;-66
2022/05/09 02:55:19;;;;;;;17.27;12.18;;;;;;;;;;4996823;28;20051;-67
2022/05/09 02:57:49;;;;;;;13.52;9.43;;;;;;;;;;4996072;28;20057;-67
2022/05/09 03:00:22;;;;;;;10.50;9.50;;;;;;;;;;4996772;28;20044;-67
2022/05/09 03:05:40;;;;;;;13.35;9.88;;;;;;;;;;5011953;28;20387;-66
2022/05/09 03:08:09;;;;;;;12.85;10.15;;;;;;;;;;4995254;28;20399;-67
2022/05/09 03:10:38;;;;;;;13.60;11.45;;;;;;;;;;4996293;28;20050;-67
2022/05/09 03:13:09;;;;;;;15.85;11.43;;;;;;;;;;4996400;28;20046;-67
2022/05/09 03:15:39;;;;;;;13.68;11.10;;;;;;;;;;4996245;28;20065;-66
2022/05/09 03:18:09;;;;;;;14.88;11.32;;;;;;;;;;4995123;28;20129;-66
2022/05/09 03:20:38;;;;;;;15.05;11.00;;;;;;;;;;4995577;28;20062;-66
2022/05/09 03:23:08;;;;;;;15.75;11.52;;;;;;;;;;4996098;28;20465;-66
2022/05/09 03:25:38;;;;;;;15.70;12.43;;;;;;;;;;4995911;28;20052;-66
2022/05/09 03:28:13;;;;;;;19.00;12.32;;;;;;;;;;4995856;28;20109;-66
2022/05/09 03:30:47;;;;;;;13.60;11.18;;;;;;;;;;4995674;28;20137;-66
2022/05/09 03:33:17;;;;;;;13.73;12.23;;;;;;;;;;4996063;28;20489;-66
2022/05/09 03:35:47;;;;;;;12.57;11.27;;;;;;;;;;4995718;28;20074;-66
2022/05/09 03:38:15;;;;;;;14.02;12.55;;;;;;;;;;4995768;28;20046;-66
2022/05/09 03:40:44;;;;;;;17.45;12.18;;;;;;;;;;4995811;28;20052;-66
2022/05/09 03:43:13;;;;;;;14.23;12.70;;;;;;;;;;4995562;28;20050;-67
2022/05/09 03:45:44;;;;;;;14.60;12.93;;;;;;;;;;4996033;28;20073;-66
2022/05/09 03:48:12;;;;;;;24.50;11.98;;;;;;;;;;4993868;28;20470;-66
2022/05/09 03:50:39;;;;;;;21.52;13.98;;;;;;;;;;4995770;28;20066;-66
2022/05/09 03:53:07;;;;;;;15.38;12.18;;;;;;;;;;4994697;28;20494;-67
2022/05/09 03:55:36;;;;;;;22.42;13.18;;;;;;;;;;4995729;28;20113;-67
2022/05/09 03:58:05;;;;;;;16.25;13.15;;;;;;;;;;4995610;28;20050;-66
2022/05/09 04:00:35;;;;;;;13.10;11.77;;;;;;;;;;4995176;28;20076;-66
2022/05/09 04:03:04;;;;;;;13.23;11.65;;;;;;;;;;4995353;28;20110;-66
2022/05/09 04:05:36;;;;;;;13.38;11.90;;;;;;;;;;4994952;28;20050;-66
2022/05/09 04:08:09;;;;;;;15.73;13.65;;;;;;;;;;4995010;28;20058;-66
2022/05/09 04:10:40;;;;;;;21.38;12.95;;;;;;;;;;4995115;28;20059;-66
2022/05/09 04:13:07;;;;;;;18.55;13.68;;;;;;;;;;4995064;28;20453;-66
2022/05/09 04:18:39;;;;;;;15.68;14.05;;;;;;;;;;4994100;28;20051;-66
2022/05/09 04:21:08;;;;;;;15.73;14.05;;;;;;;;;;4994583;28;20058;-66
2022/05/09 04:23:38;;;;;;;18.27;14.35;;;;;;;;;;4995066;28;20497;-66
2022/05/09 04:26:07;;;;;;;16.33;13.98;;;;;;;;;;4995267;28;20129;-66
2022/05/09 04:28:35;;;;;;;14.70;12.95;;;;;;;;;;4994330;28;20049;-67
2022/05/09 04:31:03;;;;;;;13.68;12.35;;;;;;;;;;4994411;28;20112;-66
2022/05/09 04:33:31;;;;;;;17.30;15.20;;;;;;;;;;4994459;28;20085;-66
2022/05/09 04:36:00;;;;;;;17.20;14.82;;;;;;;;;;4994566;28;20486;-66
2022/05/09 04:38:29;;;;;;;18.35;14.57;;;;;;;;;;4994238;28;20057;-66
2022/05/09 04:40:58;;;;;;;19.50;15.73;;;;;;;;;;4994814;28;20050;-66
2022/05/09 04:43:30;;;;;;;18.67;16.67;;;;;;;;;;4994438;28;20042;-66
2022/05/09 04:46:01;;;;;;;22.13;19.55;;;;;;;;;;5009195;28;20409;-67
2022/05/09 04:48:30;;;;;;;25.33;20.27;;;;;;;;;;4995291;28;20056;-67
2022/05/09 04:50:58;;;;;;;27.83;21.88;;;;;;;;;;4994046;28;20058;-64
2022/05/09 04:53:27;;;;;;;23.45;20.85;;;;;;;;;;4992801;28;20100;-65
2022/05/09 04:55:56;;;;;;;27.77;24.25;;;;;;;;;;4993422;28;20137;-64
2022/05/09 04:58:23;;;;;;;27.85;24.65;;;;;;;;;;4993965;28;20409;-64
2022/05/09 05:00:53;;;;;;;30.65;24.85;;;;;;;;;;4993677;28;20554;-65
2022/05/09 05:03:24;;;;;;;29.58;24.08;;;;;;;;;;4993296;28;20457;-65
2022/05/09 05:05:53;;;;;;;31.35;25.42;;;;;;;;;;4993912;28;20042;-65
2022/05/09 05:08:24;;;;;;;27.58;23.95;;;;;;;;;;4993276;28;20444;-67
2022/05/09 05:10:55;;;;;;;34.05;23.92;;;;;;;;;;4991539;28;20054;-65
2022/05/09 05:13:25;;;;;;;34.47;24.02;;;;;;;;;;4993417;28;20034;-65
2022/05/09 05:15:54;;;;;;;28.90;23.27;;;;;;;;;;4993247;28;20077;-65
2022/05/09 05:18:26;;;;;;;21.60;18.38;;;;;;;;;;4993358;28;20480;-65
2022/05/09 05:20:54;;;;;;;24.05;17.52;;;;;;;;;;4993043;28;20058;-66
2022/05/09 05:23:24;;;;;;;21.60;19.08;;;;;;;;;;4992333;28;20054;-65
2022/05/09 05:25:52;;;;;;;21.95;17.58;;;;;;;;;;4993468;28;20070;-66
2022/05/09 05:28:20;;;;;;;24.98;18.70;;;;;;;;;;4993635;28;20046;-66
2022/05/09 05:30:49;;;;;;;20.50;18.35;;;;;;;;;;4993584;28;20076;-65
2022/05/09 05:33:17;;;;;;;21.10;17.23;;;;;;;;;;4994171;28;20046;-65
2022/05/09 05:35:46;;;;;;;28.05;18.58;;;;;;;;;;4993327;28;20057;-65
2022/05/09 05:38:14;;;;;;;23.27;18.63;;;;;;;;;;4994023;28;20047;-65
2022/05/09 05:40:43;;;;;;;26.85;20.40;;;;;;;;;;4993228;28;20415;-65
2022/05/09 05:43:15;;;;;;;27.65;18.98;;;;;;;;;;4997152;28;20046;-65
2022/05/09 05:45:46;;;;;;;23.52;18.90;;;;;;;;;;4997368;28;20504;-68
2022/05/09 05:48:15;;;;;;;21.10;17.88;;;;;;;;;;4997596;28;20055;-65
2022/05/09 05:50:43;;;;;;;19.42;17.45;;;;;;;;;;4996265;28;20429;-65
2022/05/09 05:53:11;;;;;;;20.50;18.42;;;;;;;;;;4996565;28;20409;-65
2022/05/09 05:55:39;;;;;;;22.50;16.15;;;;;;;;;;4998038;28;20038;-65
2022/05/09 05:58:09;;;;;;;20.92;16.70;;;;;;;;;;4988889;28;20051;-65
2022/05/09 06:00:38;;;;;;;18.95;17.05;;;;;;;;;;4977737;28;20078;-65
2022/05/09 06:03:08;;;;;;;17.85;15.88;;;;;;;;;;4977773;28;20406;-64
2022/05/09 06:05:37;;;;;;;18.58;16.67;;;;;;;;;;4978029;28;20101;-65
2022/05/09 06:08:07;;;;;;;22.55;17.77;;;;;;;;;;4977797;28;20062;-64
2022/05/09 06:10:35;;;;;;;21.40;17.40;;;;;;;;;;4977592;28;20429;-67
2022/05/09 06:13:10;;;;;;;21.17;18.48;;;;;;;;;;4978378;28;20046;-65
2022/05/09 06:15:42;;;;;;;19.67;17.02;;;;;;;;;;4994576;28;20141;-66
2022/05/09 06:18:14;;;;;;;21.35;18.63;;;;;;;;;;4997189;28;20051;-67
2022/05/09 06:20:44;;;;;;;20.20;15.65;;;;;;;;;;4995216;28;20050;-66
2022/05/09 06:23:16;;;;;;;16.48;14.57;;;;;;;;;;4994328;28;20193;-66
2022/05/09 06:25:47;;;;;;;19.05;16.42;;;;;;;;;;4994607;28;20054;-66
2022/05/09 06:28:15;;;;;;;17.52;15.27;;;;;;;;;;4995290;28;20074;-66
2022/05/09 06:30:44;;;;;;;19.27;15.27;;;;;;;;;;4995105;28;20055;-66
2022/05/09 06:33:11;;;;;;;19.30;14.48;;;;;;;;;;4993927;28;20395;-66
2022/05/09 06:35:43;;;;;;;18.73;16.70;;;;;;;;;;4993870;28;20158;-66
2022/05/09 06:38:16;;;;;;;20.63;14.52;;;;;;;;;;4994611;28;20473;-65
2022/05/09 06:40:45;;;;;;;;;;;;;;;;;;4996899;28;20056;-65
2022/05/09 06:43:14;;;;;;;15.82;14.10;;;;;;;;;;4995685;28;19922;-65
2022/05/09 06:45:43;;;;;;;17.80;15.98;;;;;;;;;;4993607;28;20054;-65
2022/05/09 06:48:12;;;;;;;18.85;15.65;;;;;;;;;;4995590;28;20078;-65
2022/05/09 06:50:40;;;;;;;26.02;15.20;;;;;;;;;;4995847;28;20049;-65
2022/05/09 06:53:10;;;;;;;18.38;14.88;;;;;;;;;;4995202;28;20046;-65
2022/05/09 06:55:47;;;;;;;15.90;13.32;;;;;;;;;;4995972;28;20046;-65
2022/05/09 06:58:27;;;;;;;17.85;14.93;;;;;;;;;;4993562;28;20058;-65
2022/05/09 07:00:56;;;;;;;17.02;14.27;;;;;;;;;;4995664;28;20121;-64
2022/05/09 07:03:27;;;;;;;16.48;14.85;;;;;;;;;;4995232;28;20413;-64
2022/05/09 07:05:56;;;;;;;15.63;14.13;;;;;;;;;;4995280;28;20538;-65
2022/05/09 07:08:32;;;;;;;18.85;13.77;;;;;;;;;;4995590;28;20035;-65
2022/05/09 07:11:02;;;;;;;15.05;13.65;;;;;;;;;;4995586;28;20449;-65
2022/05/09 07:13:40;;;;;;;17.00;15.20;;;;;;;;;;4994409;28;20050;-65
2022/05/09 07:16:09;;;;;;;18.67;14.45;;;;;;;;;;4994251;28;20050;-65
2022/05/09 07:18:38;;;;;;;15.98;14.38;;;;;;;;;;4996528;28;20050;-65
2022/05/09 07:21:08;;;;;;;16.55;14.88;;;;;;;;;;4995017;28;20078;-65
2022/05/09 07:23:37;;;;;;;17.08;15.13;;;;;;;;;;4995866;28;20053;-66
2022/05/09 07:26:05;;;;;;;18.38;15.55;;;;;;;;;;4995899;28;20410;-66
2022/05/09 07:28:34;;;;;;;17.27;14.68;;;;;;;;;;4994365;28;20056;-65
2022/05/09 07:31:04;;;;;;;23.98;14.57;;;;;;;;;;4995702;28;20104;-66
2022/05/09 07:33:33;;;;;;;19.15;14.73;;;;;;;;;;4995460;28;20100;-66
2022/05/09 07:36:02;;;;;;;17.00;14.55;;;;;;;;;;4995171;28;20046;-66
2022/05/09 07:38:30;;;;;;;15.70;14.15;;;;;;;;;;4994609;28;20042;-66
2022/05/09 07:40:58;;;;;;;13.98;12.48;;;;;;;;;;4995470;28;20050;-65
2022/05/09 07:43:28;;;;;;;13.68;12.10;;;;;;;;;;4994961;28;20046;-65
2022/05/09 07:45:56;;;;;;;16.33;14.25;;;;;;;;;;4995124;28;20108;-65
2022/05/09 07:48:27;;;;;;;15.60;13.88;;;;;;;;;;4995575;28;20050;-65
2022/05/09 07:50:59;;;;;;;15.00;13.52;;;;;;;;;;4994790;28;20046;-65
2022/05/09 07:53:32;;;;;;;18.17;13.93;;;;;;;;;;4995101;28;20054;-65
2022/05/09 07:56:06;;;;;;;15.13;13.55;;;;;;;;;;4995300;28;20046;-71
2022/05/09 07:58:34;;;;;;;15.93;14.32;;;;;;;;;;4994350;28;20043;-65
2022/05/09 08:01:04;;;;;;;18.13;14.23;;;;;;;;;;4995122;28;20047;-65
2022/05/09 08:03:34;;;;;;;15.52;13.82;;;;;;;;;;4995275;28;20047;-65
2022/05/09 08:06:04;;;;;;;15.23;13.73;;;;;;;;;;4994093;28;20061;-65
2022/05/09 08:08:36;;;;;;;14.90;13.40;;;;;;;;;;4994833;28;20054;-65
2022/05/09 08:11:13;;;;;;;13.50;12.27;;;;;;;;;;4995531;28;20043;-65
2022/05/09 08:13:42;;;;;;;14.00;12.35;;;;;;;;;;4995060;28;20453;-65
2022/05/09 08:16:11;;;;;;;13.35;12.05;;;;;;;;;;4995415;28;20553;-65
2022/05/09 08:18:40;;;;;;;14.05;12.35;;;;;;;;;;4994474;28;20085;-65
2022/05/09 08:21:10;;;;;;;17.73;12.48;;;;;;;;;;4994841;28;20081;-65
2022/05/09 08:23:43;;;;;;;17.25;14.48;;;;;;;;;;4994296;28;20081;-65
2022/05/09 08:26:12;;;;;;;13.65;12.15;;;;;;;;;;4995348;28;20137;-68
2022/05/09 08:28:42;;;;;;;12.90;11.38;;;;;;;;;;4994980;28;20121;-65
2022/05/09 08:31:11;;;;;;;13.90;11.98;;;;;;;;;;4994687;28;20187;-65
2022/05/09 08:33:40;;;;;;;13.40;11.95;;;;;;;;;;4993626;28;20051;-66
2022/05/09 08:36:09;;;;;;;15.13;13.73;;;;;;;;;;4994259;28;20096;-65
2022/05/09 08:38:38;;;;;;;15.43;13.82;;;;;;;;;;4994840;28;20042;-65
2022/05/09 08:41:09;;;;;;;18.00;12.90;;;;;;;;;;4994002;28;20046;-65
2022/05/09 08:43:48;;;;;;;15.13;13.52;;;;;;;;;;4994293;28;20512;-67
2022/05/09 08:46:39;;;;;;;25.67;13.60;;;;;;;;;;4994218;28;20066;-66
2022/05/09 08:49:10;;;;;;;13.73;12.45;;;;;;;;;;4993785;28;20137;-65
2022/05/09 08:51:57;;;;;;;13.57;11.85;;;;;;;;;;4993851;28;20077;-68
2022/05/09 08:54:26;;;;;;;15.75;13.45;;;;;;;;;;4994370;28;20074;-68
2022/05/09 08:57:01;;;;;;;14.00;11.73;;;;;;;;;;4994305;28;20049;-66
2022/05/09 08:59:37;;;;;;;13.98;12.60;;;;;;;;;;4994044;28;20405;-68
2022/05/09 09:02:14;;;;;;;15.35;13.13;;;;;;;;;;4994559;28;20405;-67
2022/05/09 09:04:45;;;;;;;11.25;10.25;;;;;;;;;;4993059;28;20500;-65
2022/05/09 09:07:48;;;;;;;13.40;11.52;;;;;;;;;;4990726;28;20106;-66
2022/05/09 09:10:23;;;;;;;13.68;12.27;;;;;;;;;;4990608;28;20050;-67
2022/05/09 09:12:57;;;;;;;11.98;10.77;;;;;;;;;;4992257;28;20053;-67
2022/05/09 09:15:52;;;;;;;12.38;10.88;;;;;;;;;;4991743;28;20073;-72
2022/05/09 09:18:42;;;;;;;12.23;10.80;;;;;;;;;;4991845;28;20046;-76
2022/05/09 09:21:22;;;;;;;12.20;10.98;;;;;;;;;;4991482;28;20088;-70
2022/05/09 09:24:20;;;;;;;16.75;12.38;;;;;;;;;;4991854;28;20076;-69
2022/05/09 09:27:05;;;;;;;13.10;11.75;;;;;;;;;;4991477;28;20050;-69
2022/05/09 09:29:44;;;;;;;11.65;10.50;;;;;;;;;;4992201;28;20054;-68
2022/05/09 09:32:18;;;;;;;15.77;11.82;;;;;;;;;;4987807;28;20058;-68
2022/05/09 09:34:58;;;;;;;10.68;9.63;;;;;;;;;;4991894;28;20057;-69
2022/05/09 09:37:45;;;;;;;9.73;8.77;;;;;;;;;;4989478;28;20054;-70
2022/05/09 09:40:14;;;;;;;11.50;9.70;;;;;;;;;;5006685;28;20054;-67
2022/05/09 09:42:43;;;;;;;15.48;9.60;;;;;;;;;;4991301;28;20038;-67
2022/05/09 09:45:17;;;;;;;13.00;9.80;;;;;;;;;;4991742;28;20043;-67
2022/05/09 09:47:45;;;;;;;12.00;10.80;;;;;;;;;;4991796;28;20074;-67
2022/05/09 09:50:25;;;;;;;13.85;9.18;;;;;;;;;;4991765;28;20070;-67
2022/05/09 09:52:55;;;;;;;12.10;9.98;;;;;;;;;;4993309;28;20421;-67
2022/05/09 09:55:33;;;;;;;13.77;10.18;;;;;;;;;;4991693;28;20050;-68
2022/05/09 09:58:21;;;;;;;13.10;10.48;;;;;;;;;;4991603;28;20061;-65
2022/05/09 10:01:04;;;;;;;15.25;9.60;;;;;;;;;;4990261;28;20054;-67
2022/05/09 10:03:33;;;;;;;9.95;8.95;;;;;;;;;;4991702;28;20038;-67
2022/05/09 10:06:02;;;;;;;10.18;9.07;;;;;;;;;;4991425;28;20046;-67
2022/05/09 10:08:36;;;;;;;15.25;10.43;;;;;;;;;;4991567;28;20610;-67
2022/05/09 10:11:11;;;;;;;10.82;9.38;;;;;;;;;;4991009;28;20126;-67
2022/05/09 10:13:52;;;;;;;13.07;8.82;;;;;;;;;;4991428;28;20092;-66
2022/05/09 10:16:24;;;;;;;17.30;8.85;;;;;;;;;;4990600;28;20418;-66
2022/05/09 10:19:11;;;;;;;9.88;8.88;;;;;;;;;;4992112;28;20074;-66
2022/05/09 10:24:55;;;;;;;9.93;8.50;;;;;;;;;;4991154;28;20096;-67
2022/05/09 10:27:23;;;;;;;12.98;9.60;;;;;;;;;;5003132;28;20509;-68
2022/05/09 10:30:07;;;;;;;10.43;8.68;;;;;;;;;;4995332;28;20058;-67
2022/05/09 10:33:09;;;;;;;9.57;8.55;;;;;;;;;;5009885;28;20046;-67
2022/05/09 10:36:02;;;;;;;11.27;10.23;;;;;;;;;;4993406;28;20062;-67
2022/05/09 10:38:46;;;;;;;11.35;9.75;;;;;;;;;;4993517;28;20058;-67
2022/05/09 10:41:26;;;;;;;12.02;10.55;;;;;;;;;;5009385;28;20129;-67
2022/05/09 10:44:07;;;;;;;11.77;10.38;;;;;;;;;;4994130;28;20050;-67
2022/05/09 10:46:52;;;;;;;13.93;9.10;;;;;;;;;;4996044;28;20498;-67
2022/05/09 10:49:37;;;;;;;13.35;10.45;;;;;;;;;;4997706;28;20133;-67
2022/05/09 10:52:19;;;;;;;;;;;;;;;;;;4996299;28;20410;-68
2022/05/09 10:55:10;;;;;;;16.35;9.82;;;;;;;;;;5010898;28;19925;-67
2022/05/09 10:57:44;;;;;;;11.27;9.38;;;;;;;;;;4995986;28;20524;-67
2022/05/09 11:00:20;;;;;;;10.70;9.02;;;;;;;;;;4996094;28;20455;-67
2022/05/09 11:02:54;;;;;;;9.93;8.50;;;;;;;;;;4999056;28;20049;-68
2022/05/09 11:05:23;;;;;;;14.95;9.95;;;;;;;;;;4993480;28;20498;-67
2022/05/09 11:07:58;;;;;;;12.02;9.68;;;;;;;;;;4996143;28;20074;-67
2022/05/09 11:10:29;;;;;;;9.35;8.43;;;;;;;;;;4995553;28;20094;-68
2022/05/09 11:13:15;;;;;;;12.13;8.48;;;;;;;;;;4995043;28;20058;-67
2022/05/09 11:16:08;;;;;;;15.98;9.57;;;;;;;;;;4995467;28;20052;-67
2022/05/09 11:19:20;;;;;;;10.77;8.25;;;;;;;;;;4989192;28;20081;-67
2022/05/09 11:22:11;;;;;;;11.88;10.68;;;;;;;;;;4993829;28;20141;-68
2022/05/09 11:25:01;;;;;;;11.30;8.82;;;;;;;;;;4994110;28;20124;-67
2022/05/09 11:27:55;;;;;;;12.23;10.85;;;;;;;;;;4995463;28;20042;-68
2022/05/09 11:30:37;;;;;;;10.43;9.32;;;;;;;;;;4990847;28;20065;-67
2022/05/09 11:33:37;;;;;;;13.15;9.00;;;;;;;;;;4996267;28;20061;-67
2022/05/09 11:36:42;;;;;;;10.00;9.05;;;;;;;;;;4994555;28;20521;-67
2022/05/09 11:39:35;;;;;;;9.80;7.57;;;;;;;;;;4994886;28;20513;-67
2022/05/09 11:43:27;;;;;;;11.18;7.43;;;;;;;;;;4994571;28;20046;-66
2022/05/09 11:45:49;;;;;;;9.23;5.07;;;;;;;;;;4995431;28;20073;-65
2022/05/09 11:48:47;;;;;;;9.60;6.50;;;;;;;;;;4973108;28;20057;-66
2022/05/09 11:51:53;;;;;;;8.90;5.82;;;;;;;;;;4993064;28;20049;-64
2022/05/09 11:55:01;;;;;;;10.48;7.93;;;;;;;;;;4993666;28;20387;-65
2022/05/09 11:57:53;;;;;;;7.85;6.47;;;;;;;;;;4991461;28;20051;-65
2022/05/09 12:00:30;;;;;;;7.10;6.40;;;;;;;;;;4995010;28;20502;-64
2022/05/09 12:03:09;;;;;;;7.93;5.72;;;;;;;;;;4994534;28;20089;-65
2022/05/09 12:05:38;;;;;;;12.45;6.70;;;;;;;;;;4994893;28;20089;-65
2022/05/09 12:08:08;;;;;;;39.35;7.53;;;;;;;;;;4994509;28;20062;-65
2022/05/09 12:10:39;;;;;;;11.20;6.93;;;;;;;;;;4994104;28;20486;-65
2022/05/09 12:13:11;;;;;;;12.88;7.05;;;;;;;;;;4993999;28;20236;-65
2022/05/09 12:15:53;;;;;;;8.98;6.78;;;;;;;;;;4994103;28;20042;-66
2022/05/09 12:18:48;;;;;;;13.18;7.47;;;;;;;;;;4994056;28;20035;-64
2022/05/09 12:21:22;;;;;;;10.20;7.95;;;;;;;;;;4989550;28;20050;-65
2022/05/09 12:24:20;;;;;;;10.57;7.47;;;;;;;;;;4993624;28;20133;-64
2022/05/09 12:26:54;;;;;;;9.68;7.05;;;;;;;;;;4994030;28;20042;-66
2022/05/09 12:29:24;;;;;;;12.85;7.72;;;;;;;;;;4993970;28;20043;-66
2022/05/09 12:31:58;;;;;;;9.93;7.47;;;;;;;;;;4993259;28;20038;-65
2022/05/09 12:34:43;;;;;;;9.75;8.25;;;;;;;;;;4991443;28;20043;-65
2022/05/09 12:37:19;;;;;;;9.23;8.38;;;;;;;;;;4993389;28;20054;-66
2022/05/09 12:39:54;;;;;;;10.02;8.02;;;;;;;;;;4994306;28;20137;-66
2022/05/09 12:42:43;;;;;;;9.63;8.43;;;;;;;;;;4993621;28;20088;-66
2022/05/09 12:45:12;;;;;;;17.80;8.73;;;;;;;;;;5008370;28;20042;-65
2022/05/09 12:47:41;;;;;;;8.05;7.28;;;;;;;;;;4992503;28;20050;-65
2022/05/09 12:50:24;;;;;;;13.00;7.55;;;;;;;;;;4993279;28;20042;-65
2022/05/09 12:53:02;;;;;;;8.82;6.55;;;;;;;;;;5006817;28;20445;-65
2022/05/09 12:55:52;;;;;;;8.98;7.43;;;;;;;;;;4992753;28;20046;-65
2022/05/09 12:58:27;;;;;;;7.10;6.25;;;;;;;;;;4992315;28;20552;-65
2022/05/09 13:00:59;;;;;;;11.18;7.85;;;;;;;;;;4993196;28;20073;-66
2022/05/09 13:04:00;;;;;;;10.25;7.40;;;;;;;;;;4993467;28;20038;-65
2022/05/09 13:06:44;;;;;;;10.70;7.10;;;;;;;;;;4993062;28;20117;-67
2022/05/09 13:09:39;;;;;;;9.95;7.15;;;;;;;;;;4994050;28;20073;-66
2022/05/09 13:12:13;;;;;;;9.18;7.03;;;;;;;;;;4994155;28;20046;-66
2022/05/09 13:15:11;;;;;;;11.88;7.53;;;;;;;;;;4993618;28;20042;-66
2022/05/09 13:17:45;;;;;;;16.15;7.82;;;;;;;;;;4993283;28;20046;-66
2022/05/09 13:20:16;;;;;;;11.77;6.97;;;;;;;;;;4992462;28;20054;-66
2022/05/09 13:22:54;;;;;;;8.77;7.20;;;;;;;;;;4992824;28;20056;-66
2022/05/09 13:25:32;;;;;;;10.63;6.68;;;;;;;;;;4994205;28;20049;-66
2022/05/09 13:28:05;;;;;;;7.97;6.32;;;;;;;;;;5008154;28;20502;-68
2022/05/09 13:30:36;;;;;;;9.35;6.70;;;;;;;;;;4993331;28;20052;-66
2022/05/09 13:33:05;;;;;;;13.27;7.50;;;;;;;;;;4992550;28;20489;-66
2022/05/09 13:35:37;;;;;;;13.23;7.18;;;;;;;;;;4993121;28;20114;-66
2022/05/09 13:38:15;;;;;;;10.02;7.32;;;;;;;;;;4993083;28;20142;-66
2022/05/09 13:40:43;;;;;;;10.77;8.65;;;;;;;;;;4992874;28;20154;-66
2022/05/09 13:43:16;;;;;;;8.52;6.68;;;;;;;;;;4993006;28;20054;-66
2022/05/09 13:45:52;;;;;;;13.52;7.45;;;;;;;;;;4993606;28;20060;-66
2022/05/09 13:48:23;;;;;;;12.38;7.03;;;;;;;;;;4993088;28;20065;-66
2022/05/09 13:50:52;;;;;;;9.85;7.30;;;;;;;;;;4991007;28;20453;-66
2022/05/09 13:53:32;;;;;;;11.95;7.63;;;;;;;;;;4991527;28;20050;-67
2022/05/09 13:56:07;;;;;;;8.07;6.75;;;;;;;;;;4973049;28;20133;-67
2022/05/09 13:58:36;;;;;;;9.05;7.20;;;;;;;;;;4990452;28;20072;-67
2022/05/09 14:01:04;;;;;;;11.13;7.72;;;;;;;;;;4989736;28;20546;-67
2022/05/09 14:03:37;;;;;;;13.73;6.43;;;;;;;;;;4992804;28;20121;-67
2022/05/09 14:06:22;;;;;;;9.95;6.50;;;;;;;;;;5011671;28;20113;-65
2022/05/09 14:08:53;;;;;;;7.72;6.50;;;;;;;;;;5010336;28;20050;-65
2022/05/09 14:11:38;;;;;;;8.07;6.03;;;;;;;;;;5012332;28;20045;-66
2022/05/09 14:14:39;;;;;;;14.10;6.88;;;;;;;;;;4997046;28;20069;-68
2022/05/09 14:17:23;;;;;;;10.75;6.22;;;;;;;;;;4996782;28;20093;-68
2022/05/09 14:19:57;;;;;;;12.07;6.82;;;;;;;;;;4996099;28;20058;-70
2022/05/09 14:22:25;;;;;;;9.60;5.70;;;;;;;;;;4996085;28;20525;-66
2022/05/09 14:30:42;;;;;;;8.35;5.75;;;;;;;;;;5008181;28;20046;-65
2022/05/09 14:33:30;;;;;;;8.85;5.95;;;;;;;;;;5010803;28;20046;-65
2022/05/09 14:36:01;;;;;;;12.30;6.03;;;;;;;;;;4996234;28;20467;-66
2022/05/09 14:38:33;;;;;;;11.20;5.80;;;;;;;;;;4995985;28;20038;-65
2022/05/09 14:41:53;;;;;;;15.60;7.22;;;;;;;;;;4995413;28;20482;-65
2022/05/09 14:44:31;;;;;;;10.13;7.00;;;;;;;;;;4995192;28;20050;-66
2022/05/09 14:47:26;;;;;;;10.70;6.53;;;;;;;;;;4994349;28;20501;-65
2022/05/09 14:50:13;;;;;;;8.85;6.30;;;;;;;;;;5005313;28;20452;-64
2022/05/09 14:52:50;;;;;;;9.00;5.85;;;;;;;;;;5008876;28;20486;-66
2022/05/09 14:58:16;;;;;;;12.25;7.50;;;;;;;;;;4995803;28;20410;-66
2022/05/09 15:01:11;;;;;;;10.80;6.30;;;;;;;;;;4990902;28;20521;-66
2022/05/09 15:03:46;;;;;;;6.82;5.57;;;;;;;;;;4991770;28;20074;-66
2022/05/09 15:06:17;;;;;;;10.57;6.70;;;;;;;;;;4996114;28;20042;-66
2022/05/09 15:08:46;;;;;;;8.23;6.97;;;;;;;;;;4995775;28;20081;-66
2022/05/09 15:11:25;;;;;;;10.88;6.47;;;;;;;;;;4995608;28;20536;-66
2022/05/09 15:14:02;;;;;;;12.55;6.53;;;;;;;;;;4976994;28;20055;-67
2022/05/09 15:16:35;;;;;;;9.02;5.60;;;;;;;;;;4976660;28;20137;-66
2022/05/09 15:19:04;;;;;;;7.07;6.20;;;;;;;;;;4986626;28;20049;-67
2022/05/09 15:21:33;;;;;;;11.50;6.03;;;;;;;;;;4993225;28;20054;-66
2022/05/09 15:24:01;;;;;;;6.80;5.75;;;;;;;;;;4995446;28;20057;-66
2022/05/09 15:26:33;;;;;;;6.95;5.30;;;;;;;;;;4994494;28;20063;-66
2022/05/09 15:29:05;;;;;;;11.75;5.88;;;;;;;;;;4995352;28;20061;-67